createdAt,value
2018-05-14T00:00:02.504Z,19.07
2018-05-14T00:00:28.641Z,19.04
2018-05-14T00:00:54.786Z,18.96
2018-05-14T00:01:20.951Z,19.02
2018-05-14T00:01:47.111Z,19.02
2018-05-14T00:02:13.255Z,19.07
2018-05-14T00:02:39.424Z,19.12
2018-05-14T00:03:05.599Z,18.99
2018-05-14T00:03:31.786Z,19.04
2018-05-14T00:03:57.941Z,19.04
2018-05-14T00:04:24.081Z,18.93
2018-05-14T00:04:50.222Z,19.02
2018-05-14T00:05:16.442Z,19.08
2018-05-14T00:05:42.577Z,19
2018-05-14T00:06:08.738Z,19.07
2018-05-14T00:06:34.900Z,19.08
2018-05-14T00:07:01.049Z,19.08
2018-05-14T00:07:27.195Z,19.09
2018-05-14T00:07:53.333Z,19.09
2018-05-14T00:08:19.502Z,19.08
2018-05-14T00:08:45.656Z,19.07
2018-05-14T00:09:11.822Z,19.08
2018-05-14T00:09:37.959Z,19.08
2018-05-14T00:10:04.127Z,19.08
2018-05-14T00:10:30.289Z,19.07
2018-05-14T00:10:56.458Z,18.93
2018-05-14T00:11:22.601Z,19.08
2018-05-14T00:11:48.749Z,19.04
2018-05-14T00:12:14.932Z,19.07
2018-05-14T00:12:41.117Z,19.11
2018-05-14T00:13:07.279Z,19.04
2018-05-14T00:13:33.428Z,18.96
2018-05-14T00:13:59.564Z,19
2018-05-14T00:14:25.705Z,19.07
2018-05-14T00:14:51.883Z,19.07
2018-05-14T00:15:18.034Z,19.04
2018-05-14T00:15:44.185Z,19
2018-05-14T00:16:10.323Z,18.99
2018-05-14T00:16:36.477Z,18.98
2018-05-14T00:17:02.643Z,19
2018-05-14T00:17:28.789Z,19.02
2018-05-14T00:17:54.924Z,19.07
2018-05-14T00:18:21.082Z,19.08
2018-05-14T00:18:47.227Z,18.92
2018-05-14T00:19:13.433Z,18.88
2018-05-14T00:19:39.564Z,18.89
2018-05-14T00:20:05.726Z,18.86
2018-05-14T00:20:31.864Z,18.86
2018-05-14T00:20:58.020Z,18.92
2018-05-14T00:21:24.182Z,18.9
2018-05-14T00:21:50.351Z,18.93
2018-05-14T00:22:16.489Z,19.04
2018-05-14T00:22:42.677Z,19.02
2018-05-14T00:23:08.879Z,19.04
2018-05-14T00:23:35.047Z,19
2018-05-14T00:24:01.193Z,19.04
2018-05-14T00:24:27.337Z,19.04
2018-05-14T00:24:53.521Z,19.02
2018-05-14T00:25:19.656Z,18.9
2018-05-14T00:25:45.799Z,18.88
2018-05-14T00:26:11.936Z,18.9
2018-05-14T00:26:38.133Z,18.89
2018-05-14T00:27:04.294Z,18.83
2018-05-14T00:27:30.463Z,18.86
2018-05-14T00:27:56.611Z,18.83
2018-05-14T00:28:22.794Z,18.83
2018-05-14T00:28:48.937Z,18.86
2018-05-14T00:29:15.121Z,18.9
2018-05-14T00:29:41.288Z,18.99
2018-05-14T00:30:07.467Z,18.95
2018-05-14T00:30:33.668Z,18.9
2018-05-14T00:30:59.830Z,18.95
2018-05-14T00:31:25.977Z,18.95
2018-05-14T00:31:52.131Z,19
2018-05-14T00:32:18.282Z,18.92
2018-05-14T00:32:44.439Z,18.99
2018-05-14T00:33:10.583Z,19.04
2018-05-14T00:33:36.721Z,18.92
2018-05-14T00:34:02.916Z,19.02
2018-05-14T00:34:29.046Z,18.92
2018-05-14T00:34:55.193Z,18.9
2018-05-14T00:35:21.327Z,18.88
2018-05-14T00:35:47.585Z,18.9
2018-05-14T00:36:13.777Z,18.93
2018-05-14T00:36:39.952Z,18.84
2018-05-14T00:37:06.095Z,18.88
2018-05-14T00:37:32.251Z,18.9
2018-05-14T00:37:58.500Z,18.83
2018-05-14T00:38:24.664Z,18.88
2018-05-14T00:38:50.801Z,18.92
2018-05-14T00:39:16.945Z,18.83
2018-05-14T00:39:43.169Z,18.89
2018-05-14T00:40:09.345Z,18.89
2018-05-14T00:40:35.400Z,18.9
2018-05-14T00:41:01.541Z,18.86
2018-05-14T00:41:27.685Z,18.81
2018-05-14T00:41:53.858Z,18.89
2018-05-14T00:42:19.993Z,18.88
2018-05-14T00:42:46.134Z,18.8
2018-05-14T00:43:12.275Z,18.77
2018-05-14T00:43:38.437Z,18.83
2018-05-14T00:44:04.583Z,18.84
2018-05-14T00:44:30.746Z,18.71
2018-05-14T00:44:56.880Z,18.78
2018-05-14T00:45:23.015Z,18.78
2018-05-14T00:45:49.158Z,18.78
2018-05-14T00:46:15.301Z,18.78
2018-05-14T00:46:41.434Z,18.71
2018-05-14T00:47:07.580Z,18.81
2018-05-14T00:47:33.718Z,18.81
2018-05-14T00:47:59.888Z,18.86
2018-05-14T00:48:26.022Z,18.9
2018-05-14T00:48:52.209Z,18.83
2018-05-14T00:49:18.383Z,18.83
2018-05-14T00:49:44.520Z,18.84
2018-05-14T00:50:10.659Z,18.86
2018-05-14T00:50:36.804Z,18.84
2018-05-14T00:51:02.940Z,18.83
2018-05-14T00:51:29.084Z,18.86
2018-05-14T00:51:55.222Z,18.89
2018-05-14T00:52:21.358Z,18.86
2018-05-14T00:52:47.523Z,18.84
2018-05-14T00:53:13.689Z,18.89
2018-05-14T00:53:39.826Z,18.84
2018-05-14T00:54:05.964Z,18.89
2018-05-14T00:54:32.105Z,18.81
2018-05-14T00:54:58.250Z,18.86
2018-05-14T00:55:24.388Z,18.81
2018-05-14T00:55:50.525Z,18.84
2018-05-14T00:56:16.666Z,18.84
2018-05-14T00:56:42.801Z,18.84
2018-05-14T00:57:08.944Z,18.8
2018-05-14T00:57:35.082Z,18.83
2018-05-14T00:58:01.223Z,18.9
2018-05-14T00:58:27.357Z,18.83
2018-05-14T00:58:53.499Z,18.86
2018-05-14T00:59:19.636Z,18.78
2018-05-14T00:59:45.779Z,18.81
2018-05-14T01:00:11.924Z,18.77
2018-05-14T01:00:38.060Z,18.84
2018-05-14T01:01:04.203Z,18.75
2018-05-14T01:01:30.357Z,18.75
2018-05-14T01:01:56.505Z,18.73
2018-05-14T01:02:22.642Z,18.81
2018-05-14T01:02:48.783Z,18.78
2018-05-14T01:03:14.918Z,18.83
2018-05-14T01:03:41.086Z,18.8
2018-05-14T01:04:07.240Z,18.8
2018-05-14T01:04:33.377Z,18.78
2018-05-14T01:04:59.522Z,18.81
2018-05-14T01:05:25.666Z,18.81
2018-05-14T01:05:51.805Z,18.77
2018-05-14T01:06:17.966Z,18.77
2018-05-14T01:06:44.110Z,18.75
2018-05-14T01:07:10.276Z,18.81
2018-05-14T01:07:36.415Z,18.81
2018-05-14T01:08:02.552Z,18.89
2018-05-14T01:08:28.692Z,18.84
2018-05-14T01:08:54.830Z,18.83
2018-05-14T01:09:20.962Z,18.86
2018-05-14T01:09:47.102Z,18.86
2018-05-14T01:10:13.270Z,18.84
2018-05-14T01:10:39.413Z,18.8
2018-05-14T01:11:05.551Z,18.86
2018-05-14T01:11:31.694Z,18.84
2018-05-14T01:11:57.833Z,18.84
2018-05-14T01:12:23.972Z,18.81
2018-05-14T01:12:50.112Z,18.86
2018-05-14T01:13:16.251Z,18.88
2018-05-14T01:13:42.389Z,18.81
2018-05-14T01:14:08.528Z,18.83
2018-05-14T01:14:34.700Z,18.84
2018-05-14T01:15:00.830Z,18.78
2018-05-14T01:15:26.979Z,18.84
2018-05-14T01:15:53.113Z,18.84
2018-05-14T01:16:19.253Z,18.77
2018-05-14T01:16:45.393Z,18.75
2018-05-14T01:17:11.527Z,18.78
2018-05-14T01:17:37.669Z,18.77
2018-05-14T01:18:03.808Z,18.78
2018-05-14T01:18:29.941Z,18.78
2018-05-14T01:18:56.078Z,18.7
2018-05-14T01:19:22.224Z,18.7
2018-05-14T01:19:48.357Z,18.71
2018-05-14T01:20:14.498Z,18.78
2018-05-14T01:20:40.687Z,18.77
2018-05-14T01:21:06.827Z,18.73
2018-05-14T01:21:32.967Z,18.77
2018-05-14T01:21:59.110Z,18.74
2018-05-14T01:22:25.245Z,18.8
2018-05-14T01:22:51.410Z,18.77
2018-05-14T01:23:17.596Z,18.81
2018-05-14T01:23:43.741Z,18.7
2018-05-14T01:24:09.881Z,18.71
2018-05-14T01:24:36.011Z,18.8
2018-05-14T01:25:02.173Z,18.84
2018-05-14T01:25:28.316Z,18.7
2018-05-14T01:25:54.453Z,18.74
2018-05-14T01:26:20.597Z,18.8
2018-05-14T01:26:46.731Z,18.8
2018-05-14T01:27:12.897Z,18.78
2018-05-14T01:27:39.038Z,18.78
2018-05-14T01:28:05.319Z,18.75
2018-05-14T01:28:31.387Z,18.75
2018-05-14T01:28:57.532Z,18.73
2018-05-14T01:29:23.672Z,18.81
2018-05-14T01:29:49.804Z,18.84
2018-05-14T01:30:15.945Z,18.75
2018-05-14T01:30:42.130Z,18.8
2018-05-14T01:31:08.263Z,18.8
2018-05-14T01:31:34.403Z,18.77
2018-05-14T01:32:00.546Z,18.81
2018-05-14T01:32:26.688Z,18.81
2018-05-14T01:32:52.827Z,18.83
2018-05-14T01:33:18.967Z,18.81
2018-05-14T01:33:45.100Z,18.81
2018-05-14T01:34:11.239Z,18.77
2018-05-14T01:34:37.405Z,18.78
2018-05-14T01:35:03.560Z,18.78
2018-05-14T01:35:29.702Z,18.71
2018-05-14T01:35:55.846Z,18.66
2018-05-14T01:36:21.990Z,18.71
2018-05-14T01:36:48.149Z,18.74
2018-05-14T01:37:14.317Z,18.75
2018-05-14T01:37:40.456Z,18.73
2018-05-14T01:38:06.615Z,18.78
2018-05-14T01:38:32.750Z,18.75
2018-05-14T01:38:58.898Z,18.8
2018-05-14T01:39:25.064Z,18.84
2018-05-14T01:39:51.232Z,18.77
2018-05-14T01:40:17.377Z,18.78
2018-05-14T01:40:43.530Z,18.8
2018-05-14T01:41:09.674Z,18.75
2018-05-14T01:41:35.837Z,18.78
2018-05-14T01:42:01.977Z,18.78
2018-05-14T01:42:28.144Z,18.78
2018-05-14T01:42:54.285Z,18.75
2018-05-14T01:43:20.423Z,18.83
2018-05-14T01:43:46.558Z,18.8
2018-05-14T01:44:12.696Z,18.8
2018-05-14T01:44:38.872Z,18.84
2018-05-14T01:45:05.019Z,18.74
2018-05-14T01:45:31.148Z,18.8
2018-05-14T01:45:57.293Z,18.75
2018-05-14T01:46:23.433Z,18.74
2018-05-14T01:46:49.569Z,18.83
2018-05-14T01:47:15.708Z,18.77
2018-05-14T01:47:41.854Z,18.83
2018-05-14T01:48:08.013Z,18.86
2018-05-14T01:48:34.174Z,18.75
2018-05-14T01:49:00.317Z,18.83
2018-05-14T01:49:26.453Z,18.88
2018-05-14T01:49:52.597Z,18.78
2018-05-14T01:50:18.762Z,18.77
2018-05-14T01:50:44.899Z,18.74
2018-05-14T01:51:11.058Z,18.84
2018-05-14T01:51:37.204Z,18.8
2018-05-14T01:52:03.346Z,18.71
2018-05-14T01:52:29.485Z,18.77
2018-05-14T01:52:55.656Z,18.81
2018-05-14T01:53:21.799Z,18.78
2018-05-14T01:53:47.938Z,18.8
2018-05-14T01:54:14.103Z,18.81
2018-05-14T01:54:40.234Z,18.81
2018-05-14T01:55:06.413Z,18.8
2018-05-14T01:55:32.547Z,18.83
2018-05-14T01:55:58.679Z,18.81
2018-05-14T01:56:24.819Z,18.84
2018-05-14T01:56:50.959Z,18.78
2018-05-14T01:57:17.103Z,18.81
2018-05-14T01:57:43.236Z,18.84
2018-05-14T01:58:09.379Z,18.81
2018-05-14T01:58:35.520Z,18.89
2018-05-14T01:59:01.689Z,18.83
2018-05-14T01:59:27.824Z,18.8
2018-05-14T01:59:53.997Z,18.84
2018-05-14T02:00:20.127Z,18.86
2018-05-14T02:00:46.266Z,18.83
2018-05-14T02:01:12.437Z,18.9
2018-05-14T02:01:38.571Z,18.89
2018-05-14T02:02:04.706Z,18.95
2018-05-14T02:02:30.848Z,18.95
2018-05-14T02:02:56.997Z,18.92
2018-05-14T02:03:23.135Z,18.88
2018-05-14T02:03:49.275Z,18.88
2018-05-14T02:04:15.413Z,18.93
2018-05-14T02:04:41.561Z,19.08
2018-05-14T02:05:07.697Z,18.95
2018-05-14T02:05:33.842Z,19.02
2018-05-14T02:05:59.997Z,18.98
2018-05-14T02:06:26.138Z,18.99
2018-05-14T02:06:52.296Z,19.04
2018-05-14T02:07:18.408Z,19.04
2018-05-14T02:07:44.570Z,18.96
2018-05-14T02:08:10.707Z,19.07
2018-05-14T02:08:36.848Z,18.98
2018-05-14T02:09:02.994Z,19.04
2018-05-14T02:09:29.127Z,19.02
2018-05-14T02:09:55.255Z,18.98
2018-05-14T02:10:21.402Z,18.88
2018-05-14T02:10:47.559Z,18.93
2018-05-14T02:11:13.699Z,18.84
2018-05-14T02:11:39.834Z,18.89
2018-05-14T02:12:05.975Z,18.8
2018-05-14T02:12:32.114Z,18.86
2018-05-14T02:12:58.252Z,18.9
2018-05-14T02:13:24.389Z,18.99
2018-05-14T02:13:50.534Z,18.9
2018-05-14T02:14:16.675Z,18.83
2018-05-14T02:14:42.814Z,18.86
2018-05-14T02:15:08.976Z,18.83
2018-05-14T02:15:35.112Z,18.88
2018-05-14T02:16:01.247Z,18.86
2018-05-14T02:16:27.391Z,18.9
2018-05-14T02:16:53.554Z,18.9
2018-05-14T02:17:19.715Z,18.86
2018-05-14T02:17:45.848Z,18.92
2018-05-14T02:18:12.010Z,18.89
2018-05-14T02:18:38.146Z,18.88
2018-05-14T02:19:04.307Z,18.88
2018-05-14T02:19:30.454Z,18.88
2018-05-14T02:19:56.581Z,18.88
2018-05-14T02:20:22.726Z,18.92
2018-05-14T02:20:48.861Z,18.84
2018-05-14T02:21:15.030Z,18.83
2018-05-14T02:21:41.170Z,18.83
2018-05-14T02:22:07.302Z,18.88
2018-05-14T02:22:33.444Z,18.86
2018-05-14T02:22:59.584Z,18.89
2018-05-14T02:23:25.724Z,18.83
2018-05-14T02:23:51.882Z,18.88
2018-05-14T02:24:18.017Z,18.84
2018-05-14T02:24:44.149Z,18.86
2018-05-14T02:25:10.317Z,18.84
2018-05-14T02:25:36.462Z,18.89
2018-05-14T02:26:02.621Z,18.8
2018-05-14T02:26:28.777Z,18.88
2018-05-14T02:26:54.919Z,18.84
2018-05-14T02:27:21.065Z,18.89
2018-05-14T02:27:47.229Z,18.84
2018-05-14T02:28:13.370Z,18.89
2018-05-14T02:28:39.511Z,18.86
2018-05-14T02:29:05.656Z,18.86
2018-05-14T02:29:31.817Z,18.84
2018-05-14T02:29:57.955Z,18.83
2018-05-14T02:30:24.143Z,18.84
2018-05-14T02:30:50.309Z,18.86
2018-05-14T02:31:16.483Z,18.83
2018-05-14T02:31:42.673Z,18.78
2018-05-14T02:32:08.838Z,18.83
2018-05-14T02:32:34.976Z,18.77
2018-05-14T02:33:01.117Z,18.75
2018-05-14T02:33:27.306Z,18.77
2018-05-14T02:33:53.469Z,18.73
2018-05-14T02:34:19.665Z,18.74
2018-05-14T02:34:45.852Z,18.71
2018-05-14T02:35:11.992Z,18.7
2018-05-14T02:35:38.160Z,18.74
2018-05-14T02:36:04.319Z,18.71
2018-05-14T02:36:30.481Z,18.68
2018-05-14T02:36:56.704Z,18.71
2018-05-14T02:37:22.854Z,18.77
2018-05-14T02:37:49.016Z,18.73
2018-05-14T02:38:15.154Z,18.73
2018-05-14T02:38:41.370Z,18.7
2018-05-14T02:39:07.532Z,18.73
2018-05-14T02:39:33.695Z,18.71
2018-05-14T02:39:59.860Z,18.77
2018-05-14T02:40:26.013Z,18.74
2018-05-14T02:40:52.141Z,18.71
2018-05-14T02:41:18.286Z,18.74
2018-05-14T02:41:44.443Z,18.78
2018-05-14T02:42:10.616Z,18.74
2018-05-14T02:42:36.751Z,18.75
2018-05-14T02:43:02.947Z,18.83
2018-05-14T02:43:29.079Z,18.78
2018-05-14T02:43:55.291Z,18.84
2018-05-14T02:44:21.426Z,18.78
2018-05-14T02:44:47.595Z,18.78
2018-05-14T02:45:13.777Z,18.89
2018-05-14T02:45:39.933Z,18.75
2018-05-14T02:46:06.153Z,18.74
2018-05-14T02:46:32.316Z,18.8
2018-05-14T02:46:58.475Z,18.77
2018-05-14T02:47:24.634Z,18.75
2018-05-14T02:47:50.780Z,18.75
2018-05-14T02:48:16.914Z,18.71
2018-05-14T02:48:43.077Z,18.71
2018-05-14T02:49:09.245Z,18.77
2018-05-14T02:49:35.382Z,18.81
2018-05-14T02:50:01.550Z,18.75
2018-05-14T02:50:27.694Z,18.73
2018-05-14T02:50:53.868Z,18.68
2018-05-14T02:51:20.034Z,18.75
2018-05-14T02:51:46.223Z,18.7
2018-05-14T02:52:12.389Z,18.77
2018-05-14T02:52:38.535Z,18.75
2018-05-14T02:53:04.689Z,18.73
2018-05-14T02:53:30.850Z,18.78
2018-05-14T02:53:57.009Z,18.7
2018-05-14T02:54:23.179Z,18.7
2018-05-14T02:54:49.309Z,18.8
2018-05-14T02:55:15.497Z,18.68
2018-05-14T02:55:41.639Z,18.65
2018-05-14T02:56:07.830Z,18.66
2018-05-14T02:56:33.977Z,18.63
2018-05-14T02:57:00.146Z,18.68
2018-05-14T02:57:26.271Z,18.62
2018-05-14T02:57:52.406Z,18.62
2018-05-14T02:58:18.591Z,18.65
2018-05-14T02:58:44.762Z,18.63
2018-05-14T02:59:10.949Z,18.65
2018-05-14T02:59:37.094Z,18.68
2018-05-14T03:00:03.248Z,18.71
2018-05-14T03:00:29.389Z,18.65
2018-05-14T03:00:55.527Z,18.68
2018-05-14T03:01:21.688Z,18.8
2018-05-14T03:01:47.855Z,18.77
2018-05-14T03:02:13.992Z,18.7
2018-05-14T03:02:40.150Z,18.74
2018-05-14T03:03:06.312Z,18.68
2018-05-14T03:03:32.454Z,18.68
2018-05-14T03:03:58.611Z,18.73
2018-05-14T03:04:24.830Z,18.66
2018-05-14T03:04:51.060Z,18.7
2018-05-14T03:05:17.183Z,18.7
2018-05-14T03:05:43.400Z,18.68
2018-05-14T03:06:09.725Z,18.65
2018-05-14T03:06:36.008Z,18.65
2018-05-14T03:07:02.312Z,18.68
2018-05-14T03:07:28.494Z,18.68
2018-05-14T03:07:54.707Z,18.63
2018-05-14T03:08:20.942Z,18.53
2018-05-14T03:08:47.306Z,18.7
2018-05-14T03:09:13.603Z,18.6
2018-05-14T03:09:39.864Z,18.62
2018-05-14T03:10:06.169Z,18.62
2018-05-14T03:10:32.627Z,18.59
2018-05-14T03:10:58.746Z,18.6
2018-05-14T03:11:24.895Z,18.58
2018-05-14T03:11:51.029Z,18.59
2018-05-14T03:12:17.177Z,18.6
2018-05-14T03:12:43.342Z,18.6
2018-05-14T03:13:09.482Z,18.53
2018-05-14T03:13:35.622Z,18.62
2018-05-14T03:14:01.803Z,18.63
2018-05-14T03:14:27.946Z,18.63
2018-05-14T03:14:54.132Z,18.68
2018-05-14T03:15:20.293Z,18.68
2018-05-14T03:15:46.460Z,18.66
2018-05-14T03:16:12.632Z,18.71
2018-05-14T03:16:38.757Z,18.65
2018-05-14T03:17:04.897Z,18.73
2018-05-14T03:17:31.065Z,18.66
2018-05-14T03:17:57.251Z,18.62
2018-05-14T03:18:23.386Z,18.59
2018-05-14T03:18:49.523Z,18.71
2018-05-14T03:19:15.667Z,18.68
2018-05-14T03:19:41.816Z,18.59
2018-05-14T03:20:07.949Z,18.58
2018-05-14T03:20:34.093Z,18.71
2018-05-14T03:21:00.227Z,18.7
2018-05-14T03:21:26.394Z,18.53
2018-05-14T03:21:52.534Z,18.65
2018-05-14T03:22:18.700Z,18.58
2018-05-14T03:22:44.880Z,18.62
2018-05-14T03:23:11.023Z,18.59
2018-05-14T03:23:37.158Z,18.56
2018-05-14T03:24:03.298Z,18.52
2018-05-14T03:24:29.464Z,18.55
2018-05-14T03:24:55.650Z,18.53
2018-05-14T03:25:21.815Z,18.5
2018-05-14T03:25:47.978Z,18.56
2018-05-14T03:26:14.118Z,18.53
2018-05-14T03:26:40.261Z,18.55
2018-05-14T03:27:06.398Z,18.52
2018-05-14T03:27:32.564Z,18.53
2018-05-14T03:27:58.706Z,18.59
2018-05-14T03:28:24.838Z,18.58
2018-05-14T03:28:50.979Z,18.59
2018-05-14T03:29:17.121Z,18.62
2018-05-14T03:29:43.267Z,18.6
2018-05-14T03:30:09.432Z,18.59
2018-05-14T03:30:35.592Z,18.63
2018-05-14T03:31:01.729Z,18.68
2018-05-14T03:31:27.929Z,18.55
2018-05-14T03:31:54.067Z,18.6
2018-05-14T03:32:20.198Z,18.62
2018-05-14T03:32:46.338Z,18.6
2018-05-14T03:33:12.484Z,18.59
2018-05-14T03:33:38.629Z,18.63
2018-05-14T03:34:04.793Z,18.55
2018-05-14T03:34:30.930Z,18.62
2018-05-14T03:34:57.070Z,18.62
2018-05-14T03:35:23.221Z,18.5
2018-05-14T03:35:49.355Z,18.56
2018-05-14T03:36:15.495Z,18.52
2018-05-14T03:36:41.676Z,18.59
2018-05-14T03:37:07.853Z,18.5
2018-05-14T03:37:34.003Z,18.6
2018-05-14T03:38:00.140Z,18.56
2018-05-14T03:38:26.276Z,18.62
2018-05-14T03:38:52.414Z,18.59
2018-05-14T03:39:18.559Z,18.58
2018-05-14T03:39:44.728Z,18.5
2018-05-14T03:40:10.860Z,18.66
2018-05-14T03:40:37.006Z,18.62
2018-05-14T03:41:03.145Z,18.66
2018-05-14T03:41:29.315Z,18.66
2018-05-14T03:41:55.474Z,18.65
2018-05-14T03:42:21.616Z,18.63
2018-05-14T03:42:47.754Z,18.65
2018-05-14T03:43:13.897Z,18.68
2018-05-14T03:43:40.039Z,18.7
2018-05-14T03:44:06.178Z,18.6
2018-05-14T03:44:32.341Z,18.59
2018-05-14T03:44:58.484Z,18.59
2018-05-14T03:45:24.624Z,18.53
2018-05-14T03:45:50.840Z,18.55
2018-05-14T03:46:17.001Z,18.55
2018-05-14T03:46:43.162Z,18.49
2018-05-14T03:47:09.299Z,18.52
2018-05-14T03:47:35.447Z,18.5
2018-05-14T03:48:01.590Z,18.49
2018-05-14T03:48:27.723Z,18.49
2018-05-14T03:48:53.877Z,18.49
2018-05-14T03:49:20.000Z,18.49
2018-05-14T03:49:46.163Z,18.49
2018-05-14T03:50:12.355Z,18.52
2018-05-14T03:50:38.512Z,18.52
2018-05-14T03:51:04.654Z,18.55
2018-05-14T03:51:30.844Z,18.4
2018-05-14T03:51:56.984Z,18.4
2018-05-14T03:52:23.125Z,18.38
2018-05-14T03:52:49.272Z,18.5
2018-05-14T03:53:15.420Z,18.5
2018-05-14T03:53:41.563Z,18.47
2018-05-14T03:54:07.696Z,18.52
2018-05-14T03:54:33.836Z,18.53
2018-05-14T03:54:59.997Z,18.52
2018-05-14T03:55:26.160Z,18.56
2018-05-14T03:55:52.295Z,18.52
2018-05-14T03:56:18.443Z,18.5
2018-05-14T03:56:44.604Z,18.56
2018-05-14T03:57:10.741Z,18.53
2018-05-14T03:57:36.877Z,18.49
2018-05-14T03:58:03.049Z,18.59
2018-05-14T03:58:29.180Z,18.62
2018-05-14T03:58:55.315Z,18.65
2018-05-14T03:59:21.456Z,18.65
2018-05-14T03:59:47.622Z,18.66
2018-05-14T04:00:13.763Z,18.68
2018-05-14T04:00:39.947Z,18.71
2018-05-14T04:01:06.084Z,18.56
2018-05-14T04:01:32.228Z,18.68
2018-05-14T04:01:58.366Z,18.63
2018-05-14T04:02:24.645Z,18.47
2018-05-14T04:02:50.686Z,18.49
2018-05-14T04:03:16.863Z,18.52
2018-05-14T04:03:43.001Z,18.56
2018-05-14T04:04:09.143Z,18.55
2018-05-14T04:04:35.296Z,18.52
2018-05-14T04:05:01.424Z,18.56
2018-05-14T04:05:27.562Z,18.6
2018-05-14T04:05:53.728Z,18.56
2018-05-14T04:06:19.863Z,18.5
2018-05-14T04:06:46.019Z,18.62
2018-05-14T04:07:12.159Z,18.59
2018-05-14T04:07:38.318Z,18.55
2018-05-14T04:08:04.456Z,18.49
2018-05-14T04:08:30.666Z,18.5
2018-05-14T04:08:56.803Z,18.53
2018-05-14T04:09:22.952Z,18.56
2018-05-14T04:09:49.134Z,18.58
2018-05-14T04:10:15.267Z,18.6
2018-05-14T04:10:41.412Z,18.58
2018-05-14T04:11:07.552Z,18.53
2018-05-14T04:11:33.694Z,18.63
2018-05-14T04:11:59.830Z,18.6
2018-05-14T04:12:25.975Z,18.63
2018-05-14T04:12:52.140Z,18.65
2018-05-14T04:13:18.280Z,18.65
2018-05-14T04:13:44.417Z,18.62
2018-05-14T04:14:10.584Z,18.66
2018-05-14T04:14:36.720Z,18.65
2018-05-14T04:15:02.858Z,18.6
2018-05-14T04:15:29.004Z,18.6
2018-05-14T04:15:55.138Z,18.53
2018-05-14T04:16:21.278Z,18.52
2018-05-14T04:16:47.419Z,18.43
2018-05-14T04:17:13.561Z,18.47
2018-05-14T04:17:39.701Z,18.44
2018-05-14T04:18:05.845Z,18.43
2018-05-14T04:18:32.006Z,18.44
2018-05-14T04:18:58.144Z,18.41
2018-05-14T04:19:24.307Z,18.45
2018-05-14T04:19:50.458Z,18.43
2018-05-14T04:20:16.595Z,18.4
2018-05-14T04:20:42.728Z,18.44
2018-05-14T04:21:08.880Z,18.5
2018-05-14T04:21:35.017Z,18.49
2018-05-14T04:22:01.162Z,18.43
2018-05-14T04:22:27.297Z,18.49
2018-05-14T04:22:53.454Z,18.55
2018-05-14T04:23:19.596Z,18.44
2018-05-14T04:23:45.761Z,18.52
2018-05-14T04:24:11.897Z,18.58
2018-05-14T04:24:38.053Z,18.55
2018-05-14T04:25:04.195Z,18.52
2018-05-14T04:25:30.335Z,18.5
2018-05-14T04:25:56.467Z,18.59
2018-05-14T04:26:22.607Z,18.5
2018-05-14T04:26:48.799Z,18.66
2018-05-14T04:27:14.939Z,18.63
2018-05-14T04:27:41.097Z,18.62
2018-05-14T04:28:07.241Z,18.66
2018-05-14T04:28:33.381Z,18.62
2018-05-14T04:28:59.516Z,18.58
2018-05-14T04:29:25.653Z,18.63
2018-05-14T04:29:51.793Z,18.6
2018-05-14T04:30:17.961Z,18.65
2018-05-14T04:30:44.072Z,18.56
2018-05-14T04:31:10.229Z,18.66
2018-05-14T04:31:36.381Z,18.68
2018-05-14T04:32:02.545Z,18.63
2018-05-14T04:32:28.701Z,18.62
2018-05-14T04:32:54.837Z,18.68
2018-05-14T04:33:20.984Z,18.53
2018-05-14T04:33:47.123Z,18.63
2018-05-14T04:34:13.263Z,18.6
2018-05-14T04:34:39.410Z,18.63
2018-05-14T04:35:05.548Z,18.47
2018-05-14T04:35:31.686Z,18.53
2018-05-14T04:35:57.826Z,18.56
2018-05-14T04:36:23.969Z,18.58
2018-05-14T04:36:50.106Z,18.56
2018-05-14T04:37:16.249Z,18.55
2018-05-14T04:37:42.384Z,18.53
2018-05-14T04:38:08.525Z,18.56
2018-05-14T04:38:34.668Z,18.59
2018-05-14T04:39:00.811Z,18.55
2018-05-14T04:39:26.948Z,18.52
2018-05-14T04:39:53.082Z,18.44
2018-05-14T04:40:19.220Z,18.44
2018-05-14T04:40:45.367Z,18.33
2018-05-14T04:41:11.553Z,18.37
2018-05-14T04:41:37.693Z,18.37
2018-05-14T04:42:03.858Z,18.31
2018-05-14T04:42:29.999Z,18.29
2018-05-14T04:42:56.133Z,18.41
2018-05-14T04:43:22.278Z,18.41
2018-05-14T04:43:48.416Z,18.41
2018-05-14T04:44:14.556Z,18.45
2018-05-14T04:44:40.705Z,18.45
2018-05-14T04:45:06.850Z,18.47
2018-05-14T04:45:32.980Z,18.45
2018-05-14T04:45:59.142Z,18.45
2018-05-14T04:46:25.303Z,18.4
2018-05-14T04:46:51.440Z,18.43
2018-05-14T04:47:17.584Z,18.4
2018-05-14T04:47:43.730Z,18.4
2018-05-14T04:48:09.894Z,18.43
2018-05-14T04:48:36.038Z,18.49
2018-05-14T04:49:02.201Z,18.43
2018-05-14T04:49:28.344Z,18.44
2018-05-14T04:49:54.503Z,18.44
2018-05-14T04:50:20.646Z,18.47
2018-05-14T04:50:46.775Z,18.5
2018-05-14T04:51:12.922Z,18.4
2018-05-14T04:51:39.085Z,18.43
2018-05-14T04:52:05.231Z,18.29
2018-05-14T04:52:31.484Z,18.26
2018-05-14T04:52:57.655Z,18.28
2018-05-14T04:53:24.021Z,18.28
2018-05-14T04:53:50.200Z,18.2
2018-05-14T04:54:16.361Z,18.11
2018-05-14T04:54:42.505Z,18.2
2018-05-14T04:55:08.669Z,18.15
2018-05-14T04:55:34.804Z,18.07
2018-05-14T04:56:00.944Z,18.04
2018-05-14T04:56:27.080Z,18.05
2018-05-14T04:56:53.242Z,18.03
2018-05-14T04:57:19.402Z,18.04
2018-05-14T04:57:45.565Z,18.04
2018-05-14T04:58:11.709Z,18.03
2018-05-14T04:58:37.850Z,18.11
2018-05-14T04:59:03.984Z,18.19
2018-05-14T04:59:30.122Z,18.13
2018-05-14T04:59:56.264Z,18.23
2018-05-14T05:00:22.434Z,18.28
2018-05-14T05:00:48.578Z,18.29
2018-05-14T05:01:14.741Z,18.26
2018-05-14T05:01:40.888Z,18.26
2018-05-14T05:02:07.039Z,18.31
2018-05-14T05:02:33.223Z,18.35
2018-05-14T05:02:59.389Z,18.29
2018-05-14T05:03:25.552Z,18.26
2018-05-14T05:03:51.695Z,18.28
2018-05-14T05:04:17.828Z,18.23
2018-05-14T05:04:43.990Z,18.26
2018-05-14T05:05:10.151Z,18.4
2018-05-14T05:05:36.290Z,18.33
2018-05-14T05:06:02.432Z,18.33
2018-05-14T05:06:28.574Z,18.4
2018-05-14T05:06:54.707Z,18.31
2018-05-14T05:07:20.853Z,18.44
2018-05-14T05:07:47.002Z,18.4
2018-05-14T05:08:13.142Z,18.37
2018-05-14T05:08:39.296Z,18.38
2018-05-14T05:09:05.438Z,18.37
2018-05-14T05:09:31.608Z,18.33
2018-05-14T05:09:57.746Z,18.4
2018-05-14T05:10:23.941Z,18.28
2018-05-14T05:10:50.076Z,18.28
2018-05-14T05:11:16.220Z,18.34
2018-05-14T05:11:42.349Z,18.4
2018-05-14T05:12:08.490Z,18.38
2018-05-14T05:12:34.632Z,18.56
2018-05-14T05:13:00.780Z,18.5
2018-05-14T05:13:26.923Z,18.6
2018-05-14T05:13:53.106Z,18.55
2018-05-14T05:14:19.250Z,18.74
2018-05-14T05:14:45.385Z,18.73
2018-05-14T05:15:11.523Z,18.78
2018-05-14T05:15:37.670Z,18.81
2018-05-14T05:16:03.829Z,18.77
2018-05-14T05:16:29.994Z,18.75
2018-05-14T05:16:56.135Z,18.77
2018-05-14T05:17:22.298Z,18.73
2018-05-14T05:17:48.461Z,18.73
2018-05-14T05:18:14.629Z,18.75
2018-05-14T05:18:40.797Z,18.75
2018-05-14T05:19:06.935Z,18.83
2018-05-14T05:19:33.075Z,18.83
2018-05-14T05:19:59.211Z,18.88
2018-05-14T05:20:25.347Z,18.88
2018-05-14T05:20:51.483Z,19
2018-05-14T05:21:17.621Z,19
2018-05-14T05:21:43.761Z,19.08
2018-05-14T05:22:09.900Z,19.08
2018-05-14T05:22:36.041Z,19.04
2018-05-14T05:23:02.178Z,19.09
2018-05-14T05:23:28.315Z,19.09
2018-05-14T05:23:54.484Z,19.04
2018-05-14T05:24:20.643Z,19.11
2018-05-14T05:24:46.813Z,19.12
2018-05-14T05:25:12.952Z,19.08
2018-05-14T05:25:39.096Z,19.14
2018-05-14T05:26:05.261Z,19.08
2018-05-14T05:26:31.406Z,19.02
2018-05-14T05:26:57.564Z,19.04
2018-05-14T05:27:23.727Z,19.14
2018-05-14T05:27:49.887Z,19.08
2018-05-14T05:28:16.040Z,19.19
2018-05-14T05:28:42.183Z,19.12
2018-05-14T05:29:08.316Z,19.07
2018-05-14T05:29:34.463Z,19.11
2018-05-14T05:30:00.600Z,19.08
2018-05-14T05:30:26.741Z,19.09
2018-05-14T05:30:52.878Z,19.09
2018-05-14T05:31:19.024Z,19.04
2018-05-14T05:31:45.178Z,19.14
2018-05-14T05:32:11.315Z,19.16
2018-05-14T05:32:37.486Z,19.18
2018-05-14T05:33:03.630Z,19.21
2018-05-14T05:33:29.765Z,19.24
2018-05-14T05:33:55.909Z,19.14
2018-05-14T05:34:22.050Z,19.19
2018-05-14T05:34:48.187Z,19.15
2018-05-14T05:35:14.333Z,19.18
2018-05-14T05:35:40.505Z,19.22
2018-05-14T05:36:06.667Z,19.15
2018-05-14T05:36:32.783Z,19.3
2018-05-14T05:36:58.971Z,19.09
2018-05-14T05:37:25.167Z,19.19
2018-05-14T05:37:51.390Z,19.19
2018-05-14T05:38:17.456Z,19.24